Time;durP1;ratioP1;P1;durP2;ratioP2;P2;SDS_P1;SDS_P2;PMS_P1;PMS_P2;Temp;Humidity;BMP_temperature;BMP_pressure;BME280_temperature;BME280_humidity;BME280_pressure;Samples;Min_cycle;Max_cycle;Signal;HPM_P1;HPM_P2
2021/06/14 00:01:18;;;;;;;2.17;1.92;;;16.80;99.90;;;;;;5058419;28;20090;-68
2021/06/14 00:03:44;;;;;;;3.75;2.50;;;16.80;99.90;;;;;;5058309;28;20061;-68
2021/06/14 00:06:10;;;;;;;2.20;2.00;;;16.80;99.90;;;;;;5058451;28;20102;-68
2021/06/14 00:08:43;;;;;;;4.75;2.25;;;16.70;99.90;;;;;;5058642;28;20029;-68
2021/06/14 00:11:10;;;;;;;3.53;3.00;;;16.60;99.90;;;;;;5058328;28;20071;-68
2021/06/14 00:13:37;;;;;;;4.80;2.67;;;16.70;99.90;;;;;;5058522;28;20021;-67
2021/06/14 00:16:03;;;;;;;2.83;2.63;;;16.70;99.90;;;;;;5058356;28;20041;-68
2021/06/14 00:18:30;;;;;;;3.13;2.83;;;16.60;99.90;;;;;;5058090;28;20025;-68
2021/06/14 00:20:59;;;;;;;8.13;3.15;;;16.70;99.90;;;;;;5058183;28;20083;-68
2021/06/14 00:23:28;;;;;;;3.17;2.97;;;16.60;99.90;;;;;;5058180;28;20032;-68
2021/06/14 00:25:54;;;;;;;2.63;2.42;;;16.60;99.90;;;;;;5057903;28;20040;-68
2021/06/14 00:28:21;;;;;;;2.70;2.50;;;16.50;99.90;;;;;;5058008;28;20482;-68
2021/06/14 00:30:48;;;;;;;7.03;3.15;;;16.50;99.90;;;;;;5057822;28;20032;-68
2021/06/14 00:33:15;;;;;;;2.67;2.40;;;16.50;99.90;;;;;;5057698;28;20029;-68
2021/06/14 00:35:43;;;;;;;4.38;3.13;;;16.50;99.90;;;;;;5058089;28;20032;-68
2021/06/14 00:38:09;;;;;;;3.85;3.33;;;16.40;99.90;;;;;;5057744;28;20467;-68
2021/06/14 00:40:36;;;;;;;3.85;3.47;;;16.50;99.90;;;;;;5057233;28;20096;-68
2021/06/14 00:43:03;;;;;;;4.78;2.65;;;16.40;99.90;;;;;;5057849;28;20039;-68
2021/06/14 00:45:31;;;;;;;2.75;2.55;;;16.30;99.90;;;;;;5057778;28;20025;-68
2021/06/14 00:47:59;;;;;;;3.42;2.53;;;16.30;99.90;;;;;;5057438;28;20021;-68
2021/06/14 00:50:52;;;;;;;3.00;2.35;;;16.30;99.90;;;;;;5057739;28;20033;-68
2021/06/14 00:53:31;;;;;;;6.07;2.78;;;16.20;99.90;;;;;;5057408;28;20031;-68
2021/06/14 00:55:59;;;;;;;3.00;2.50;;;16.20;99.90;;;;;;5057636;28;20024;-68
2021/06/14 00:58:26;;;;;;;3.20;2.40;;;16.20;99.90;;;;;;5057280;28;20553;-68
2021/06/14 01:00:52;;;;;;;2.83;2.45;;;16.10;99.90;;;;;;5057573;28;20025;-68
2021/06/14 01:03:18;;;;;;;2.53;2.30;;;16.10;99.90;;;;;;5056978;28;20028;-68
2021/06/14 01:05:49;;;;;;;2.95;2.75;;;16.20;99.90;;;;;;5057263;28;20028;-68
2021/06/14 01:08:16;;;;;;;3.53;3.22;;;16.20;99.90;;;;;;5057239;28;20112;-68
2021/06/14 01:10:43;;;;;;;3.17;2.88;;;16.10;99.90;;;;;;5057222;28;20032;-68
2021/06/14 01:13:24;;;;;;;7.05;2.88;;;16.10;99.90;;;;;;5057357;28;20408;-68
2021/06/14 01:16:29;;;;;;;2.78;2.40;;;16.00;99.90;;;;;;5057096;28;20021;-68
2021/06/14 01:19:11;;;;;;;2.97;2.70;;;16.10;99.90;;;;;;5050638;28;20122;-68
2021/06/14 01:22:14;;;;;;;10.43;4.18;;;15.90;99.90;;;;;;5057224;28;20021;-68
2021/06/14 01:24:49;;;;;;;4.45;3.15;;;15.80;99.90;;;;;;5056884;28;20049;-68
2021/06/14 01:27:37;;;;;;;2.70;2.50;;;15.90;99.90;;;;;;5056899;28;20491;-68
2021/06/14 01:30:09;;;;;;;5.50;3.42;;;15.70;99.90;;;;;;5056619;28;20393;-68
2021/06/14 01:32:37;;;;;;;4.60;2.75;;;15.70;99.90;;;;;;5056823;28;20033;-68
2021/06/14 01:35:07;;;;;;;3.53;2.90;;;15.70;99.90;;;;;;5056831;28;20051;-68
2021/06/14 01:37:36;;;;;;;4.55;2.80;;;15.70;99.90;;;;;;5057058;28;20477;-67
2021/06/14 01:40:03;;;;;;;4.28;3.35;;;15.70;99.90;;;;;;5056686;28;20129;-68
2021/06/14 01:42:30;;;;;;;5.97;2.50;;;15.60;99.90;;;;;;5057219;28;20020;-68
2021/06/14 01:44:56;;;;;;;2.70;2.50;;;15.60;99.90;;;;;;5056695;28;20063;-68
2021/06/14 01:47:22;;;;;;;6.25;3.38;;;15.70;99.90;;;;;;5056777;28;20067;-68
2021/06/14 01:49:49;;;;;;;4.30;2.80;;;15.70;99.90;;;;;;5056321;28;20032;-68
2021/06/14 01:52:15;;;;;;;5.35;3.42;;;15.60;99.90;;;;;;5055773;28;20393;-68
2021/06/14 01:54:43;;;;;;;4.95;2.53;;;15.50;99.90;;;;;;5056482;28;20021;-67
2021/06/14 01:57:09;;;;;;;3.05;2.63;;;15.50;99.90;;;;;;5056614;28;20044;-67
2021/06/14 01:59:38;;;;;;;8.45;2.67;;;15.50;99.90;;;;;;5056509;28;20017;-68
2021/06/14 02:02:06;;;;;;;3.97;2.85;;;15.50;99.90;;;;;;5056645;28;20050;-68
2021/06/14 02:04:37;;;;;;;8.38;3.05;;;15.50;99.90;;;;;;5056402;28;20021;-68
2021/06/14 02:07:04;;;;;;;6.82;3.65;;;15.40;99.90;;;;;;5056517;28;20029;-67
2021/06/14 02:09:32;;;;;;;5.57;3.13;;;15.30;99.90;;;;;;5056481;28;20017;-68
2021/06/14 02:12:02;;;;;;;5.20;3.03;;;15.30;99.90;;;;;;5056649;28;20029;-67
2021/06/14 02:14:33;;;;;;;3.58;2.75;;;15.20;99.90;;;;;;5054171;28;20067;-68
2021/06/14 02:17:05;;;;;;;4.88;2.72;;;15.10;99.90;;;;;;5056440;28;20025;-68
2021/06/14 02:19:31;;;;;;;5.40;3.60;;;15.10;99.90;;;;;;5056186;28;20025;-68
2021/06/14 02:21:57;;;;;;;5.20;3.20;;;15.10;99.90;;;;;;5056583;28;20056;-68
2021/06/14 02:24:24;;;;;;;7.32;3.33;;;15.10;99.90;;;;;;5055966;28;20044;-68
2021/06/14 02:26:50;;;;;;;3.85;3.45;;;15.10;99.90;;;;;;5056320;28;20476;-68
2021/06/14 02:29:17;;;;;;;3.70;2.60;;;15.00;99.90;;;;;;5056192;28;20032;-68
2021/06/14 02:31:43;;;;;;;4.65;2.92;;;15.10;99.90;;;;;;5056246;28;20473;-67
2021/06/14 02:34:09;;;;;;;3.30;2.30;;;15.00;99.90;;;;;;5055901;28;20035;-68
2021/06/14 02:36:36;;;;;;;4.97;3.22;;;15.00;99.90;;;;;;5056214;28;20032;-67
2021/06/14 02:39:11;;;;;;;3.60;3.13;;;15.00;99.90;;;;;;5056227;28;20017;-68
2021/06/14 02:41:37;;;;;;;5.25;2.40;;;15.00;99.90;;;;;;5056129;28;20166;-68
2021/06/14 02:44:05;;;;;;;4.80;2.47;;;15.00;99.90;;;;;;5056328;28;20029;-68
2021/06/14 02:46:37;;;;;;;2.45;2.25;;;14.90;99.90;;;;;;5056232;28;20039;-68
2021/06/14 02:49:04;;;;;;;2.70;2.30;;;15.00;99.90;;;;;;5056062;28;20040;-68
2021/06/14 02:51:35;;;;;;;2.63;2.42;;;15.00;99.90;;;;;;5056118;28;20473;-68
2021/06/14 02:54:03;;;;;;;3.85;2.88;;;15.00;99.90;;;;;;5056265;28;20024;-68
2021/06/14 02:56:37;;;;;;;5.10;2.75;;;14.90;99.90;;;;;;5056114;28;20029;-68
2021/06/14 02:59:06;;;;;;;3.03;2.75;;;14.90;99.90;;;;;;5056034;28;20017;-68
2021/06/14 03:01:33;;;;;;;13.02;3.67;;;14.90;99.90;;;;;;5055885;28;20029;-68
2021/06/14 03:04:03;;;;;;;4.47;2.92;;;14.80;99.90;;;;;;5057594;28;20370;-68
2021/06/14 03:06:29;;;;;;;4.93;2.60;;;14.80;99.90;;;;;;5059630;28;20036;-68
2021/06/14 03:08:57;;;;;;;4.75;3.28;;;14.80;99.90;;;;;;5059625;28;20078;-68
2021/06/14 03:11:28;;;;;;;4.80;2.70;;;14.70;99.90;;;;;;5059292;28;20033;-68
2021/06/14 03:13:56;;;;;;;5.25;3.00;;;14.80;99.90;;;;;;5059437;28;20017;-68
2021/06/14 03:16:24;;;;;;;4.20;2.30;;;14.70;99.90;;;;;;5059165;28;20568;-68
2021/06/14 03:18:53;;;;;;;4.68;2.88;;;14.70;99.90;;;;;;5059061;28;20485;-67
2021/06/14 03:21:21;;;;;;;3.28;3.00;;;14.60;99.90;;;;;;5059744;28;20041;-68
2021/06/14 03:23:51;;;;;;;2.40;2.20;;;14.60;99.90;;;;;;5058947;28;20057;-68
2021/06/14 03:26:19;;;;;;;5.03;2.75;;;14.60;99.90;;;;;;5059376;28;20033;-67
2021/06/14 03:28:47;;;;;;;8.85;3.40;;;14.60;99.90;;;;;;5059161;28;20036;-68
2021/06/14 03:31:15;;;;;;;6.57;3.47;;;14.60;99.90;;;;;;5059369;28;20029;-68
2021/06/14 03:33:49;;;;;;;6.40;3.42;;;14.50;99.90;;;;;;5058717;28;20473;-67
2021/06/14 03:36:18;;;;;;;4.20;3.00;;;14.60;99.90;;;;;;5059216;28;20025;-68
2021/06/14 03:38:45;;;;;;;4.95;2.78;;;14.50;99.90;;;;;;5058809;28;20012;-67
2021/06/14 03:41:12;;;;;;;3.50;2.85;;;14.50;99.90;;;;;;5058927;28;20370;-68
2021/06/14 03:43:38;;;;;;;5.53;2.95;;;14.40;99.90;;;;;;5058935;28;20048;-68
2021/06/14 03:46:04;;;;;;;11.68;3.78;;;14.50;99.90;;;;;;5058900;28;20025;-68
2021/06/14 03:48:29;;;;;;;9.40;3.75;;;14.30;99.90;;;;;;5058683;28;20025;-67
2021/06/14 03:50:55;;;;;;;9.10;3.10;;;14.30;99.90;;;;;;5058926;28;20078;-67
2021/06/14 03:53:32;;;;;;;4.53;3.03;;;14.20;99.90;;;;;;5058555;28;20073;-68
2021/06/14 03:56:04;;;;;;;7.93;4.05;;;14.20;99.90;;;;;;5059071;28;20028;-68
2021/06/14 03:58:29;;;;;;;8.32;3.45;;;14.10;99.90;;;;;;5058836;28;20063;-67
2021/06/14 04:00:56;;;;;;;7.03;3.70;;;14.10;99.90;;;;;;5058734;28;20025;-67
2021/06/14 04:03:26;;;;;;;5.22;3.35;;;14.20;99.90;;;;;;5058438;28;20025;-67
2021/06/14 04:05:52;;;;;;;5.97;2.80;;;14.20;99.90;;;;;;5058510;28;20132;-67
2021/06/14 04:08:17;;;;;;;4.03;3.60;;;14.20;99.90;;;;;;5058428;28;20047;-68
2021/06/14 04:10:43;;;;;;;4.50;3.20;;;14.20;99.90;;;;;;5058380;28;20025;-68
2021/06/14 04:13:09;;;;;;;8.90;3.17;;;14.20;99.90;;;;;;5058498;28;20039;-68
2021/06/14 04:15:36;;;;;;;8.45;4.18;;;14.30;99.90;;;;;;5057550;28;20021;-67
2021/06/14 04:18:03;;;;;;;8.23;3.58;;;14.20;99.90;;;;;;5057892;28;20089;-67
2021/06/14 04:20:29;;;;;;;10.32;3.20;;;14.20;99.90;;;;;;5058427;28;20032;-67
2021/06/14 04:22:55;;;;;;;5.72;3.75;;;14.20;99.90;;;;;;5058490;28;20060;-67
2021/06/14 04:25:21;;;;;;;4.78;2.97;;;14.20;99.90;;;;;;5057816;28;20524;-68
2021/06/14 04:27:47;;;;;;;3.78;3.03;;;14.30;99.90;;;;;;5058228;28;20487;-67
2021/06/14 04:30:14;;;;;;;14.70;3.25;;;14.30;99.90;;;;;;5058032;28;20102;-67
2021/06/14 04:32:40;;;;;;;14.75;3.05;;;14.30;99.90;;;;;;5058171;28;20037;-67
2021/06/14 04:35:08;;;;;;;6.95;2.95;;;14.30;99.90;;;;;;5057775;28;20024;-67
2021/06/14 04:37:34;;;;;;;3.22;2.97;;;14.40;99.90;;;;;;5058171;28;20481;-67
2021/06/14 04:40:00;;;;;;;3.40;3.08;;;14.30;99.90;;;;;;5057924;28;20021;-67
2021/06/14 04:42:27;;;;;;;3.92;3.10;;;14.30;99.90;;;;;;5058084;28;20052;-67
2021/06/14 04:44:53;;;;;;;5.20;3.00;;;14.40;99.90;;;;;;5057707;28;20025;-67
2021/06/14 04:47:20;;;;;;;3.13;2.83;;;14.40;99.90;;;;;;5057978;28;20033;-67
2021/06/14 04:49:46;;;;;;;3.15;2.70;;;14.50;99.90;;;;;;5057333;28;20033;-67
2021/06/14 04:52:12;;;;;;;7.00;2.80;;;14.50;99.90;;;;;;5057437;28;20037;-67
2021/06/14 04:54:39;;;;;;;6.03;2.85;;;14.70;99.90;;;;;;5057347;28;20021;-67
2021/06/14 04:57:05;;;;;;;3.20;2.92;;;14.80;99.90;;;;;;5057589;28;20029;-67
2021/06/14 04:59:31;;;;;;;3.72;2.95;;;14.80;99.90;;;;;;5049808;28;20028;-67
2021/06/14 05:01:57;;;;;;;2.30;2.10;;;14.90;99.90;;;;;;5038405;28;20030;-68
2021/06/14 05:04:23;;;;;;;2.85;2.55;;;15.10;99.90;;;;;;5056088;28;20025;-68
2021/06/14 05:06:49;;;;;;;2.67;2.47;;;15.20;99.90;;;;;;5056867;28;20036;-67
2021/06/14 05:09:15;;;;;;;4.70;2.67;;;15.40;99.90;;;;;;5055599;28;20024;-64
2021/06/14 05:11:41;;;;;;;4.30;2.60;;;15.50;99.90;;;;;;5056955;28;20075;-65
2021/06/14 05:14:06;;;;;;;3.42;2.65;;;15.70;99.90;;;;;;5056705;28;20381;-65
2021/06/14 05:16:32;;;;;;;8.00;3.45;;;15.80;99.90;;;;;;5056862;28;20025;-65
2021/06/14 05:18:58;;;;;;;9.25;3.08;;;16.00;99.90;;;;;;5056943;28;20025;-64
2021/06/14 05:21:25;;;;;;;4.47;2.50;;;16.10;99.90;;;;;;5056735;28;20040;-65
2021/06/14 05:23:51;;;;;;;6.15;2.95;;;16.30;99.90;;;;;;5056612;28;20041;-65
2021/06/14 05:26:17;;;;;;;4.03;2.97;;;16.50;99.90;;;;;;5057067;28;20032;-65
2021/06/14 05:28:43;;;;;;;8.00;2.85;;;16.60;99.90;;;;;;5056397;28;20032;-64
2021/06/14 05:31:10;;;;;;;2.65;2.45;;;16.80;99.90;;;;;;5056026;28;20033;-69
2021/06/14 05:33:37;;;;;;;3.65;2.40;;;17.20;99.90;;;;;;5055605;28;20021;-69
2021/06/14 05:36:03;;;;;;;5.88;2.78;;;17.40;99.90;;;;;;5055735;28;20025;-69
2021/06/14 05:38:29;;;;;;;4.05;2.67;;;17.60;99.90;;;;;;5056911;28;20040;-69
2021/06/14 05:40:55;;;;;;;2.85;2.42;;;17.80;99.90;;;;;;5056880;28;20032;-69
2021/06/14 05:43:21;;;;;;;2.85;2.60;;;17.90;99.90;;;;;;5056723;28;20056;-69
2021/06/14 05:45:47;;;;;;;2.72;2.53;;;18.20;99.90;;;;;;5056755;28;20032;-69
2021/06/14 05:48:13;;;;;;;14.63;2.83;;;18.50;99.90;;;;;;5056314;28;20029;-69
2021/06/14 05:50:39;;;;;;;5.88;2.65;;;18.80;99.90;;;;;;5056676;28;20032;-68
2021/06/14 05:53:05;;;;;;;6.40;2.42;;;19.00;99.90;;;;;;5056761;28;20033;-69
2021/06/14 05:55:31;;;;;;;3.33;2.20;;;19.30;99.90;;;;;;5056837;28;20021;-69
2021/06/14 05:57:57;;;;;;;3.85;1.83;;;19.40;99.90;;;;;;5056416;28;20060;-68
2021/06/14 06:00:23;;;;;;;2.63;2.42;;;19.70;99.90;;;;;;5056700;28;20027;-69
2021/06/14 06:02:49;;;;;;;6.18;2.50;;;19.90;99.90;;;;;;5056187;28;20078;-69
2021/06/14 06:05:15;;;;;;;7.13;2.30;;;20.10;99.90;;;;;;5055277;28;20025;-69
2021/06/14 06:07:41;;;;;;;3.63;2.40;;;20.40;99.90;;;;;;5056692;28;20075;-68
2021/06/14 06:10:09;;;;;;;3.63;2.50;;;20.60;99.90;;;;;;5056522;28;20017;-68
2021/06/14 06:12:36;;;;;;;7.30;2.90;;;20.80;99.90;;;;;;5056105;28;20088;-69
2021/06/14 06:15:04;;;;;;;5.07;2.80;;;21.10;99.90;;;;;;5056921;28;20017;-69
2021/06/14 06:17:29;;;;;;;3.83;2.60;;;21.40;99.90;;;;;;5056213;28;20032;-69
2021/06/14 06:19:56;;;;;;;4.57;3.00;;;21.70;99.90;;;;;;5056283;28;20022;-69
2021/06/14 06:22:22;;;;;;;6.93;3.42;;;22.00;99.90;;;;;;5056501;28;20037;-69
2021/06/14 06:24:48;;;;;;;4.97;3.58;;;22.30;99.90;;;;;;5056023;28;20048;-69
2021/06/14 06:27:14;;;;;;;4.97;3.85;;;22.40;99.90;;;;;;5056240;28;20040;-69
2021/06/14 06:29:40;;;;;;;8.32;3.63;;;22.60;99.90;;;;;;5056414;28;20032;-69
2021/06/14 06:32:06;;;;;;;5.03;2.70;;;22.70;99.90;;;;;;5056204;28;20386;-69
2021/06/14 06:34:32;;;;;;;4.80;2.78;;;23.00;99.90;;;;;;5056302;28;20028;-69
2021/06/14 06:36:58;;;;;;;2.95;2.65;;;23.30;99.90;;;;;;5056199;28;20025;-69
2021/06/14 06:39:23;;;;;;;4.30;2.72;;;23.50;99.90;;;;;;5058924;28;20013;-69
2021/06/14 06:41:50;;;;;;;3.70;2.58;;;23.80;99.90;;;;;;5060231;28;20064;-69
2021/06/14 06:44:15;;;;;;;3.53;2.22;;;24.00;99.90;;;;;;5060261;28;20021;-69
2021/06/14 06:46:41;;;;;;;5.28;2.35;;;24.40;99.90;;;;;;5059942;28;20025;-69
2021/06/14 06:49:07;;;;;;;3.60;2.38;;;24.90;99.90;;;;;;5059681;28;20025;-69
2021/06/14 06:51:33;;;;;;;6.13;2.53;;;25.30;99.90;;;;;;5059909;28;20488;-69
2021/06/14 06:54:11;;;;;;;6.78;2.85;;;25.70;99.90;;;;;;5059988;28;20485;-70
2021/06/14 06:56:42;;;;;;;2.88;2.05;;;26.00;99.90;;;;;;5059563;28;20388;-69
2021/06/14 06:59:10;;;;;;;2.30;1.90;;;26.40;99.90;;;;;;5059792;28;20021;-69
2021/06/14 07:01:36;;;;;;;2.45;1.77;;;26.80;99.90;;;;;;5059674;28;20032;-69
2021/06/14 07:04:03;;;;;;;5.63;1.92;;;27.00;99.90;;;;;;5059559;28;20036;-69
2021/06/14 07:06:29;;;;;;;3.97;2.17;;;27.30;99.90;;;;;;5059735;28;20025;-69
2021/06/14 07:08:59;;;;;;;2.03;1.83;;;27.60;99.90;;;;;;5059547;28;20032;-69
2021/06/14 07:11:28;;;;;;;3.55;1.73;;;27.90;99.90;;;;;;5059367;28;20545;-69
2021/06/14 07:13:55;;;;;;;3.15;1.25;;;28.30;99.50;;;;;;5059497;28;20021;-70
2021/06/14 07:16:21;;;;;;;2.38;1.67;;;28.60;99.70;;;;;;5059223;28;20555;-70
2021/06/14 07:18:47;;;;;;;1.88;1.60;;;29.00;98.60;;;;;;5059120;28;20392;-70
2021/06/14 07:21:14;;;;;;;1.75;1.42;;;29.20;96.60;;;;;;5059761;28;20028;-70
2021/06/14 07:23:41;;;;;;;3.03;1.48;;;29.20;95.50;;;;;;5059026;28;20029;-70
2021/06/14 07:26:08;;;;;;;1.70;1.30;;;29.10;94.80;;;;;;5059443;28;20100;-70
2021/06/14 07:28:34;;;;;;;3.65;1.60;;;29.10;94.90;;;;;;5059134;28;20017;-70
2021/06/14 07:31:01;;;;;;;2.15;1.30;;;29.10;94.50;;;;;;5059259;28;20112;-70
2021/06/14 07:33:27;;;;;;;4.65;2.28;;;29.20;94.30;;;;;;5058619;28;20025;-70
2021/06/14 07:35:53;;;;;;;2.55;1.70;;;29.40;93.80;;;;;;5059134;28;20040;-70
2021/06/14 07:38:20;;;;;;;2.25;1.45;;;29.40;93.70;;;;;;5058682;28;20021;-70
2021/06/14 07:40:46;;;;;;;3.10;1.85;;;29.50;93.10;;;;;;5059126;28;20029;-70
2021/06/14 07:43:12;;;;;;;3.15;1.30;;;29.70;93.90;;;;;;5058894;28;20021;-70
2021/06/14 07:45:40;;;;;;;2.42;1.38;;;30.00;93.70;;;;;;5059054;28;20032;-70
2021/06/14 07:48:06;;;;;;;4.20;1.58;;;30.20;93.00;;;;;;5058554;28;20092;-70
2021/06/14 07:50:32;;;;;;;3.88;1.35;;;30.40;92.80;;;;;;5057703;28;20024;-70
2021/06/14 07:52:58;;;;;;;1.30;0.88;;;30.20;90.50;;;;;;5058893;28;20035;-70
2021/06/14 07:55:24;;;;;;;8.13;1.73;;;30.30;91.00;;;;;;5058638;28;20500;-70
2021/06/14 07:57:50;;;;;;;8.45;1.92;;;30.60;90.30;;;;;;5058775;28;20025;-70
2021/06/14 08:00:16;;;;;;;2.03;1.00;;;30.90;90.00;;;;;;5058695;28;20607;-70
2021/06/14 08:02:42;;;;;;;1.55;1.15;;;31.30;89.70;;;;;;5058374;28;20108;-70
2021/06/14 08:05:10;;;;;;;2.80;1.25;;;31.70;89.40;;;;;;5058672;28;20092;-70
2021/06/14 08:07:37;;;;;;;3.25;1.42;;;32.10;84.70;;;;;;5058535;28;20025;-70
2021/06/14 08:10:07;;;;;;;1.42;0.82;;;32.00;85.30;;;;;;5058577;28;20017;-70
2021/06/14 08:12:37;;;;;;;4.53;1.00;;;32.10;84.40;;;;;;5058397;28;20064;-70
2021/06/14 08:15:04;;;;;;;2.15;1.35;;;32.60;85.10;;;;;;5058516;28;20025;-70
2021/06/14 08:17:30;;;;;;;2.85;1.45;;;32.90;83.40;;;;;;5058109;28;20017;-70
2021/06/14 08:20:06;;;;;;;1.80;1.00;;;32.90;81.10;;;;;;5058331;28;20091;-70
2021/06/14 08:25:03;;;;;;;3.03;1.05;;;32.90;80.60;;;;;;5058237;28;20405;-70
2021/06/14 08:25:24;;;;;;;2.17;1.10;;;32.90;80.20;;;;;;5057736;28;20063;-70
2021/06/14 08:27:49;;;;;;;3.20;1.25;;;32.90;79.40;;;;;;5058224;28;20481;-70
2021/06/14 08:30:19;;;;;;;3.70;1.45;;;33.20;79.60;;;;;;5058089;28;20032;-70
2021/06/14 08:32:45;;;;;;;2.00;0.75;;;33.50;78.90;;;;;;5057784;28;20393;-70
2021/06/14 08:35:14;;;;;;;4.28;2.03;;;33.90;77.60;;;;;;5057842;28;20480;-70
2021/06/14 08:37:42;;;;;;;6.93;1.85;;;34.20;74.40;;;;;;5058177;28;20060;-70
2021/06/14 08:40:09;;;;;;;1.98;1.20;;;34.20;73.60;;;;;;5057701;28;20100;-70
2021/06/14 08:42:35;;;;;;;6.20;1.25;;;34.60;73.20;;;;;;5058135;28;20033;-70
2021/06/14 08:45:01;;;;;;;1.70;1.00;;;34.90;72.90;;;;;;5057848;28;20067;-70
2021/06/14 08:47:29;;;;;;;1.90;1.33;;;35.10;71.90;;;;;;5057739;28;20098;-70
2021/06/14 08:49:56;;;;;;;4.13;1.55;;;35.30;69.00;;;;;;5057520;28;20097;-70
2021/06/14 08:52:23;;;;;;;2.05;1.27;;;35.40;69.80;;;;;;5057844;28;20040;-70
2021/06/14 08:54:51;;;;;;;2.55;1.45;;;35.60;70.10;;;;;;5057532;28;20024;-70
2021/06/14 08:57:17;;;;;;;8.00;2.47;;;35.50;69.90;;;;;;5057756;28;20036;-70
2021/06/14 08:59:44;;;;;;;2.63;1.65;;;35.20;69.30;;;;;;5057380;28;20017;-70
2021/06/14 09:02:11;;;;;;;5.22;1.10;;;34.90;67.10;;;;;;5057214;28;20036;-71
2021/06/14 09:04:37;;;;;;;3.70;1.05;;;34.40;66.00;;;;;;5057168;28;20028;-71
2021/06/14 09:07:04;;;;;;;1.77;1.20;;;33.90;68.40;;;;;;5057470;28;20055;-71
2021/06/14 09:09:31;;;;;;;2.63;1.20;;;33.90;68.50;;;;;;5057472;28;20029;-70
2021/06/14 09:11:59;;;;;;;2.85;1.25;;;34.30;68.30;;;;;;5057313;28;20055;-70
2021/06/14 09:14:29;;;;;;;7.95;1.95;;;35.00;68.10;;;;;;5057114;28;20438;-70
2021/06/14 09:17:12;;;;;;;2.05;1.05;;;35.80;68.20;;;;;;5057242;28;20017;-70
2021/06/14 09:19:48;;;;;;;1.65;1.10;;;36.50;69.10;;;;;;5057094;28;20029;-71
2021/06/14 09:27:36;;;;;;;2.28;1.63;;;37.80;64.40;;;;;;5228147;22;20569;-71
2021/06/14 09:30:22;;;;;;;1.08;0.90;;;37.30;61.20;;;;;;5023158;28;20030;-70
2021/06/14 09:35:21;;;;;;;7.70;1.55;;;36.80;61.70;;;;;;5037504;28;20108;-70
2021/06/14 09:38:01;;;;;;;2.00;1.33;;;36.90;62.60;;;;;;5041139;28;20026;-70
2021/06/14 09:40:29;;;;;;;1.95;1.00;;;37.10;64.00;;;;;;5037074;28;20021;-70
2021/06/14 09:42:55;;;;;;;1.50;0.82;;;37.60;64.80;;;;;;5036420;28;20025;-70
2021/06/14 09:45:22;;;;;;;2.45;0.88;;;38.10;63.00;;;;;;5039564;28;20423;-70
2021/06/14 09:47:49;;;;;;;2.28;0.80;;;38.30;60.10;;;;;;5036629;28;20055;-70
2021/06/14 09:50:31;;;;;;;1.42;1.17;;;38.80;60.70;;;;;;5036725;28;20056;-70
2021/06/14 09:53:08;;;;;;;1.67;0.90;;;39.10;56.80;;;;;;5036684;28;20021;-70
2021/06/14 09:55:35;;;;;;;1.58;0.80;;;38.80;57.30;;;;;;5036660;28;20147;-70
2021/06/14 09:58:19;;;;;;;2.03;1.00;;;38.80;58.90;;;;;;5036506;28;20053;-70
2021/06/14 10:01:01;;;;;;;1.73;1.10;;;37.90;57.00;;;;;;5036416;28;20036;-70
2021/06/14 10:03:39;;;;;;;2.60;1.13;;;37.20;58.80;;;;;;5043927;28;20018;-70
2021/06/14 10:06:05;;;;;;;0.77;0.77;;;36.90;59.40;;;;;;5016871;28;20056;-70
2021/06/14 10:08:33;;;;;;;1.52;0.93;;;36.90;61.80;;;;;;5017017;28;20018;-70
2021/06/14 10:11:07;;;;;;;2.78;1.15;;;37.60;62.10;;;;;;5017178;28;20030;-70
2021/06/14 10:13:35;;;;;;;1.75;1.05;;;37.80;56.90;;;;;;5017915;28;20026;-71
2021/06/14 10:16:06;;;;;;;1.75;1.15;;;38.10;58.80;;;;;;5021133;28;20029;-70
2021/06/14 10:18:34;;;;;;;1.65;1.50;;;38.40;58.00;;;;;;5021043;28;20022;-70
2021/06/14 10:21:21;;;;;;;1.63;0.93;;;38.30;57.50;;;;;;5020990;28;20025;-70
2021/06/14 10:23:49;;;;;;;2.25;1.20;;;38.30;57.50;;;;;;5020461;28;20026;-70
2021/06/14 10:26:15;;;;;;;2.10;1.20;;;38.20;56.50;;;;;;5020862;28;20084;-70
2021/06/14 10:28:41;;;;;;;2.60;1.20;;;38.20;57.50;;;;;;5031995;28;20041;-70
2021/06/14 10:31:09;;;;;;;2.38;1.25;;;38.50;57.90;;;;;;5020610;28;20084;-70
2021/06/14 10:33:36;;;;;;;1.63;1.02;;;38.70;59.70;;;;;;5020363;28;20030;-70
2021/06/14 10:36:02;;;;;;;2.05;1.00;;;39.00;57.90;;;;;;5040092;28;20025;-70
2021/06/14 10:38:30;;;;;;;3.17;1.35;;;38.90;57.40;;;;;;5044173;28;20093;-70
2021/06/14 10:40:56;;;;;;;2.15;0.90;;;38.70;57.20;;;;;;5040250;28;20480;-70
2021/06/14 10:43:26;;;;;;;1.10;0.77;;;39.00;57.80;;;;;;5039736;28;20320;-68
2021/06/14 10:45:54;;;;;;;1.00;0.80;;;39.20;58.00;;;;;;5040046;28;20049;-68
2021/06/14 10:48:32;;;;;;;2.17;0.95;;;39.70;58.40;;;;;;5039973;28;20056;-68
2021/06/14 10:51:00;;;;;;;4.13;0.80;;;40.20;57.50;;;;;;5039972;28;20540;-68
2021/06/14 10:53:32;;;;;;;2.88;0.80;;;40.70;56.60;;;;;;5039787;28;20029;-68
2021/06/14 10:56:01;;;;;;;2.42;0.80;;;41.20;56.10;;;;;;5040176;28;20032;-68
2021/06/14 10:58:30;;;;;;;0.63;0.63;;;41.00;54.60;;;;;;5020200;28;20040;-68
2021/06/14 11:01:07;;;;;;;1.08;0.70;;;40.60;55.30;;;;;;5020166;28;20072;-68
2021/06/14 11:03:44;;;;;;;1.25;1.05;;;40.60;55.10;;;;;;5028728;28;20556;-68
2021/06/14 11:06:22;;;;;;;1.92;0.70;;;40.60;54.90;;;;;;5039747;28;20071;-68
2021/06/14 11:09:10;;;;;;;1.08;1.00;;;40.60;54.60;;;;;;5039760;28;20108;-68
2021/06/14 11:11:43;;;;;;;1.60;1.10;;;40.00;51.60;;;;;;5019392;28;20556;-68
2021/06/14 11:14:09;;;;;;;1.10;0.82;;;39.40;53.50;;;;;;5019675;28;20022;-68
2021/06/14 11:16:37;;;;;;;1.35;0.70;;;39.80;55.80;;;;;;5019851;28;20428;-68
2021/06/14 11:19:06;;;;;;;1.48;0.73;;;40.30;55.10;;;;;;5019725;28;20029;-68
2021/06/14 11:21:32;;;;;;;0.95;0.68;;;40.70;55.30;;;;;;5019806;28;20022;-68
2021/06/14 11:24:07;;;;;;;2.60;0.70;;;40.90;54.00;;;;;;5019336;28;20034;-67
2021/06/14 11:26:33;;;;;;;3.30;0.73;;;41.00;54.50;;;;;;5019520;28;20030;-68
2021/06/14 11:29:14;;;;;;;1.60;1.00;;;41.20;53.20;;;;;;5024634;28;20079;-68
2021/06/14 11:31:40;;;;;;;0.85;0.85;;;41.20;52.30;;;;;;5039336;28;20025;-68
2021/06/14 11:34:17;;;;;;;3.70;0.70;;;41.20;52.00;;;;;;5039085;28;20025;-68
2021/06/14 11:36:58;;;;;;;4.10;1.20;;;40.60;52.30;;;;;;5039429;28;20072;-68
2021/06/14 11:39:26;;;;;;;4.43;0.98;;;40.00;52.90;;;;;;5039232;28;20436;-68
2021/06/14 11:41:53;;;;;;;1.13;0.90;;;39.80;53.90;;;;;;5038535;28;20033;-68
2021/06/14 11:44:30;;;;;;;0.88;0.80;;;40.10;52.70;;;;;;5039251;28;20032;-68
2021/06/14 11:47:17;;;;;;;1.35;0.88;;;39.40;52.00;;;;;;5038953;28;20420;-68
2021/06/14 11:49:45;;;;;;;2.50;1.20;;;39.60;53.10;;;;;;5038236;28;20045;-68
2021/06/14 11:52:27;;;;;;;2.47;0.80;;;39.80;52.10;;;;;;5038927;28;20033;-68
2021/06/14 11:54:59;;;;;;;2.90;1.00;;;40.10;54.20;;;;;;5038898;28;20029;-68
2021/06/14 11:57:32;;;;;;;2.28;0.88;;;40.60;53.10;;;;;;5038263;28;20437;-68
2021/06/14 11:59:58;;;;;;;3.60;1.00;;;40.80;52.90;;;;;;5038738;28;20040;-68
2021/06/14 12:02:27;;;;;;;1.17;0.90;;;41.20;53.20;;;;;;5038553;28;20033;-68
2021/06/14 12:04:59;;;;;;;1.58;0.82;;;41.60;53.10;;;;;;5038752;28;20032;-68
2021/06/14 12:07:32;;;;;;;1.17;0.90;;;41.70;51.80;;;;;;5038329;28;20526;-68
2021/06/14 12:10:24;;;;;;;1.15;0.95;;;41.40;52.30;;;;;;5038892;28;20481;-68
2021/06/14 12:13:04;;;;;;;2.70;1.10;;;41.70;51.70;;;;;;5035480;28;20037;-68
2021/06/14 12:15:30;;;;;;;3.17;0.80;;;41.50;51.30;;;;;;5038329;28;20160;-68
2021/06/14 12:17:56;;;;;;;3.65;1.10;;;41.50;51.80;;;;;;5038546;28;20025;-68
2021/06/14 12:20:27;;;;;;;1.58;1.20;;;41.70;52.50;;;;;;5038439;28;20492;-68
2021/06/14 12:23:11;;;;;;;1.30;0.90;;;41.70;51.40;;;;;;5038330;28;20029;-68
2021/06/14 12:25:45;;;;;;;1.15;0.90;;;41.60;52.00;;;;;;5038064;28;20378;-68
2021/06/14 12:28:13;;;;;;;1.02;0.82;;;41.20;51.10;;;;;;5037914;28;20048;-68
2021/06/14 12:30:43;;;;;;;1.13;0.70;;;41.20;52.40;;;;;;5038032;28;20026;-68
2021/06/14 12:33:13;;;;;;;1.08;0.73;;;41.60;51.40;;;;;;5038159;28;20033;-68
2021/06/14 12:35:39;;;;;;;1.00;0.75;;;41.70;52.10;;;;;;5037743;28;20093;-68
2021/06/14 12:38:12;;;;;;;2.05;1.00;;;41.40;49.90;;;;;;5037935;28;20481;-68
2021/06/14 12:40:40;;;;;;;2.75;1.15;;;40.30;50.70;;;;;;5037895;28;20033;-68
2021/06/14 12:43:09;;;;;;;1.25;0.82;;;40.00;52.00;;;;;;5037450;28;20500;-68
2021/06/14 12:45:38;;;;;;;1.33;0.70;;;39.60;52.10;;;;;;5037988;28;20029;-68
2021/06/14 12:48:09;;;;;;;1.30;0.98;;;40.20;52.90;;;;;;5037680;28;20396;-68
2021/06/14 12:50:47;;;;;;;1.17;0.82;;;40.60;51.70;;;;;;5037630;28;20607;-68
2021/06/14 12:53:18;;;;;;;0.93;0.70;;;41.10;52.70;;;;;;5037658;28;20108;-68
2021/06/14 12:55:47;;;;;;;1.67;0.88;;;41.30;51.50;;;;;;5037560;28;20045;-68
2021/06/14 12:58:20;;;;;;;0.77;0.77;;;40.80;51.10;;;;;;5037150;28;20059;-68
2021/06/14 13:00:49;;;;;;;1.50;0.88;;;39.50;49.70;;;;;;5037385;28;20025;-69
2021/06/14 13:03:16;;;;;;;2.60;0.82;;;39.20;51.00;;;;;;5037773;28;20057;-69